Storm Events Database

Event Details

Event Hail
Magnitude 0.75 in.
State NEBRASKA
County/Area LOUP
WFO LBF
Begin Date 05/05/2007 11:59:00 CST-6
Begin Range 0
Begin Azimuth N
Begin Location TAYLOR
Begin Lat/Lon 41.77/-99.38
End Date 05/05/2007 11:59:00 CST-6
Deaths Direct/Indirect 0/0 (fatality details below, when available...)
Injuries Direct/Indirect 0/0
Property Damage 0.00K
Crop Damage 0.00K
Episode Narrative Severe thunderstorms developed during the early morning hours and continued throughout the morning producing several reports of hail and some flash flooding. During the afternoon, tornadic supercells developed leading to reports of tornadoes, hail and flash flooding which continued into the early evening.
Event Narrative


All events for this episode:

Location County/Zone St. Date Time T.Z. Type Mag Dth Inj PrD CrD
Totals: 0 0 228.40K 3.00K
MASON CITY CUSTER CO. NE 05/04/2007 23:00 CST-6 Hail 1.75 in. 0 0 6.00K 0.00K
COMSTOCK CUSTER CO. NE 05/04/2007 23:29 CST-6 Hail 1.00 in. 0 0 0.00K 0.00K
ERICSON WHEELER CO. NE 05/04/2007 23:30 CST-6 Hail 0.88 in. 0 0 0.00K 0.00K
IMPERIAL CHASE CO. NE 05/04/2007 23:35 MST-7 Hail 0.88 in. 0 0 0.00K 0.00K
MADRID PERKINS CO. NE 05/04/2007 23:41 MST-7 Hail 1.00 in. 0 0 0.00K 0.00K
SARGENT CUSTER CO. NE 05/05/2007 00:00 CST-6 Hail 1.75 in. 0 0 6.00K 0.00K
MERNA CUSTER CO. NE 05/05/2007 00:00 CST-6 Hail 0.88 in. 0 0 0.00K 0.00K
BARTLETT WHEELER CO. NE 05/05/2007 00:15 CST-6 Hail 1.00 in. 0 0 0.00K 0.00K
CHAMBERS HOLT CO. NE 05/05/2007 00:17 CST-6 Hail 1.00 in. 0 0 0.00K 0.00K
BRADY LINCOLN CO. NE 05/05/2007 00:18 CST-6 Hail 1.00 in. 0 0 0.00K 0.00K
BRADY LINCOLN CO. NE 05/05/2007 00:53 CST-6 Hail 1.00 in. 0 0 0.00K 3.00K
MAXWELL LINCOLN CO. NE 05/05/2007 00:56 CST-6 Flash Flood 0 0 0.00K 0.00K
DUNNING BLAINE CO. NE 05/05/2007 01:00 CST-6 Hail 0.88 in. 0 0 0.00K 0.00K
CALLAWAY CUSTER CO. NE 05/05/2007 01:30 CST-6 Hail 1.00 in. 0 0 0.00K 0.00K
NORTH PLATTE LINCOLN CO. NE 05/05/2007 01:30 CST-6 Thunderstorm Wind 63 kts. MG 0 0 0.00K 0.00K
CALLAWAY CUSTER CO. NE 05/05/2007 02:45 CST-6 Hail 1.75 in. 0 0 3.00K 0.00K
BURWELL GARFIELD CO. NE 05/05/2007 04:40 CST-6 Thunderstorm Wind 60 kts. EG 0 0 20.00K 0.00K
BERWYN CUSTER CO. NE 05/05/2007 06:58 CST-6 Flash Flood 0 0 0.00K 0.00K
HYANNIS GRANT CO. NE 05/05/2007 08:00 MST-7 Hail 1.00 in. 0 0 0.00K 0.00K
CHAMBERS HOLT CO. NE 05/05/2007 08:08 CST-6 Hail 1.00 in. 0 0 0.00K 0.00K
WOOD LAKE CHERRY CO. NE 05/05/2007 09:15 CST-6 Hail 0.88 in. 0 0 0.00K 0.00K
WOOD LAKE CHERRY CO. NE 05/05/2007 09:18 CST-6 Hail 0.75 in. 0 0 0.00K 0.00K
GORDON SHERIDAN CO. NE 05/05/2007 09:50 MST-7 Hail 1.25 in. 0 0 0.00K 0.00K
AINSWORTH BROWN CO. NE 05/05/2007 10:10 CST-6 Hail 0.88 in. 0 0 0.00K 0.00K
OSHKOSH GARDEN CO. NE 05/05/2007 11:15 MST-7 Hail 0.88 in. 0 0 0.00K 0.00K
BRADY LINCOLN CO. NE 05/05/2007 11:20 CST-6 Hail 1.75 in. 0 0 1.20K 0.00K
ARNOLD CUSTER CO. NE 05/05/2007 11:55 CST-6 Hail 1.75 in. 0 0 10.00K 0.00K
TAYLOR LOUP CO. NE 05/05/2007 11:59 CST-6 Hail 0.75 in. 0 0 0.00K 0.00K
THEDFORD THOMAS CO. NE 05/05/2007 11:59 CST-6 Hail 0.75 in. 0 0 0.00K 0.00K
BRADY LINCOLN CO. NE 05/05/2007 12:14 CST-6 Hail 0.75 in. 0 0 0.00K 0.00K
ARNOLD CUSTER CO. NE 05/05/2007 12:15 CST-6 Hail 1.00 in. 0 0 0.00K 0.00K
DUNNING BLAINE CO. NE 05/05/2007 12:55 CST-6 Hail 1.00 in. 0 0 0.00K 0.00K
OGALLALA KEITH CO. NE 05/05/2007 12:58 MST-7 Hail 0.88 in. 0 0 0.00K 0.00K
KEYSTONE KEITH CO. NE 05/05/2007 13:22 MST-7 Hail 2.50 in. 0 0 30.00K 0.00K
OCONTO CUSTER CO. NE 05/05/2007 13:30 CST-6 Hail 1.25 in. 0 0 0.00K 0.00K
STAPLETON LOGAN CO. NE 05/05/2007 13:38 CST-6 Hail 1.75 in. 0 0 3.00K 0.00K
DUNNING BLAINE CO. NE 05/05/2007 13:42 CST-6 Hail 0.88 in. 0 0 0.00K 0.00K
MERRIMAN CHERRY CO. NE 05/05/2007 13:45 CST-6 Hail 1.00 in. 0 0 0.00K 0.00K
JOHNSTOWN BROWN CO. NE 05/05/2007 14:00 CST-6 Hail 2.50 in. 0 0 3.00K 0.00K
DUNNING BLAINE CO. NE 05/05/2007 14:30 CST-6 Hail 1.00 in. 0 0 0.00K 0.00K
MERRIMAN CHERRY CO. NE 05/05/2007 14:47 CST-6 Hail 1.00 in. 0 0 0.00K 0.00K
ELI CHERRY CO. NE 05/05/2007 15:34 CST-6 Hail 1.00 in. 0 0 0.00K 0.00K
CODY CHERRY CO. NE 05/05/2007 15:55 CST-6 Hail 1.25 in. 0 0 0.00K 0.00K
ARNOLD CUSTER CO. NE 05/05/2007 16:00 CST-6 Flash Flood 0 0 25.00K 0.00K
SPRINGVIEW KEYA PAHA CO. NE 05/05/2007 16:00 CST-6 Flash Flood 0 0 120.00K 0.00K
AINSWORTH BROWN CO. NE 05/05/2007 16:00 CST-6 Flash Flood 0 0 0.00K 0.00K
BREWSTER BLAINE CO. NE 05/05/2007 16:20 CST-6 Hail 0.88 in. 0 0 0.00K 0.00K
ANSELMO CUSTER CO. NE 05/05/2007 16:23 CST-6 Hail 1.00 in. 0 0 0.00K 0.00K
NAPER BOYD CO. NE 05/05/2007 16:50 CST-6 Hail 2.00 in. 0 0 1.20K 0.00K
AINSWORTH BROWN CO. NE 05/05/2007 17:48 CST-6 Hail 0.88 in. 0 0 0.00K 0.00K
SPRINGVIEW KEYA PAHA CO. NE 05/05/2007 17:53 CST-6 Hail 0.88 in. 0 0 0.00K 0.00K
Totals: 0 0 228.40K 3.00K